Sunnyvale, California
Current Conditions -  °F | °C
As of 12:56 PM on Sunday 21 Dec 2014 (Local Time) from KNUQ Reporting Station
Overcast Overcast  
Wind Chill: 62°   Ceiling: 2000
Heat Index: 62°   Visibility: 10mi
Dew Point: 58°   Wind: 8mph
Humidity: 86%   Direction: 350°N
Pressure: 30.29"   Gusts: NA
Location:  37.37°N, 122.03°W
Report Text: KNUQ 212056Z 35007KT 10SM OVC020 17/14 A3029 RMK AO2 SLP258 T01670144 57015
Loading
Personal Weather Stations






























Interactive Weather Map New forecast layout! Learn more

10-Day Weather Forecast

Advertisements
Track Severe Weather on mobile